Main page
METAR-TAF:

METAR-TAF

Airports :

Ouagadougou, Burkina Faso

Ouagadougou Airport

latitude: 12-21N, longitude: 001-31W, elevation: 316 m

Current weather observation

The report was made 2 hours and 23 minutes ago, at 15:00 UTC
Wind 7 kt from the East/Southeast, varying between East/Northeast and South
Temperature 31°C
Humidity 55%
Pressure 1013 hPa
Visibility 10 km or more
no clouds below 1500 m and no cumulonimbus

METAR: DFFD 261500Z 12007KT 060V170 CAVOK 31/21 Q1013 NOSIG

Time: 17:23 (17:23 UTC)

Forecast

The report was made 6 hours and 23 minutes ago, at 11:00 UTC
Forecast valid from 26 at 12 UTC to 27 at 18 UTC
Wind 8 kt from variable directions
Visibility 10 km or more
Few clouds at a height of 2000 ft
Temporary
from 26 at 16 UTC to 26 at 24 UTC
Few clouds at a height of 2000 ft
Few clouds at a height of 4000 ft, Cumulonimbus.
thunderstorm

TAF: DFFD 261100Z 2612/2718 VRB08KT 9999 FEW020 TEMPO 2616/2624 TS FEW020 FEW040CB

Weather observations and forecasts of more than 4000 airports (METAR and TAF reports).

The available stations are represented by yellow and red dots on the map.

Hover mouse over dot to see the name of the station.

Then click to see weather observations and forecasts.

To change the map : click on the green buttons with a black cross to zoom in, on the green button with a dash to zoom out, or on the green arrows for adjacent maps.


METAR-TAF: